Time;durP1;ratioP1;P1;durP2;ratioP2;P2;SDS_P1;SDS_P2;PMS_P1;PMS_P2;Temp;Humidity;BMP_temperature;BMP_pressure;BME280_temperature;BME280_humidity;BME280_pressure;Samples;Min_cycle;Max_cycle;Signal;HPM_P1;HPM_P2
2023/07/27 00:01:51;;;;;;;3.73;2.40;;;;;;;;;;4973078;28;20429;-94
2023/07/27 00:04:18;;;;;;;3.17;2.67;;;;;;;;;;4992512;28;20420;-93
2023/07/27 00:06:46;;;;;;;4.17;2.50;;;;;;;;;;4970417;28;20442;-93
2023/07/27 00:09:12;;;;;;;3.17;2.47;;;;;;;;;;4971706;28;20465;-92
2023/07/27 00:11:38;;;;;;;3.13;2.60;;;;;;;;;;4979454;28;20520;-93
2023/07/27 00:14:04;;;;;;;3.17;2.47;;;;;;;;;;4992326;28;20912;-92
2023/07/27 00:16:30;;;;;;;3.83;2.07;;;;;;;;;;4975218;28;20449;-94
2023/07/27 00:18:56;;;;;;;4.97;2.90;;;;;;;;;;4972634;28;20532;-90
2023/07/27 00:21:22;;;;;;;3.83;2.90;;;;;;;;;;4954222;28;20434;-90
2023/07/27 00:23:48;;;;;;;4.77;2.60;;;;;;;;;;4973925;28;20476;-89
2023/07/27 00:26:14;;;;;;;2.60;2.40;;;;;;;;;;4975920;28;20918;-90
2023/07/27 00:28:40;;;;;;;4.23;2.53;;;;;;;;;;4969891;28;20484;-90
2023/07/27 00:31:06;;;;;;;3.57;3.10;;;;;;;;;;4970098;28;20895;-89
2023/07/27 00:33:32;;;;;;;6.43;2.07;;;;;;;;;;4966711;28;20456;-90
2023/07/27 00:35:58;;;;;;;2.53;2.20;;;;;;;;;;4964304;28;20465;-89
2023/07/27 00:38:24;;;;;;;3.00;2.53;;;;;;;;;;4996084;28;20430;-90
2023/07/27 00:40:50;;;;;;;4.47;2.90;;;;;;;;;;4990405;28;20416;-90
2023/07/27 00:43:16;;;;;;;3.20;2.00;;;;;;;;;;4986321;28;20440;-90
2023/07/27 00:45:42;;;;;;;3.47;2.33;;;;;;;;;;4958021;28;20428;-90
2023/07/27 00:48:09;;;;;;;3.83;3.53;;;;;;;;;;4973010;28;20453;-90
2023/07/27 00:50:35;;;;;;;5.37;2.67;;;;;;;;;;4979197;28;20436;-90
2023/07/27 00:53:02;;;;;;;2.93;2.13;;;;;;;;;;4959102;28;20557;-90
2023/07/27 00:55:28;;;;;;;8.50;2.80;;;;;;;;;;4980306;28;20412;-90
2023/07/27 00:57:54;;;;;;;3.40;2.50;;;;;;;;;;4970165;28;20444;-90
2023/07/27 01:00:20;;;;;;;4.00;2.13;;;;;;;;;;4967774;28;20468;-90
2023/07/27 01:02:46;;;;;;;4.60;2.37;;;;;;;;;;4978659;28;20447;-89
2023/07/27 01:05:12;;;;;;;2.07;1.87;;;;;;;;;;4964264;28;20475;-90
2023/07/27 01:07:38;;;;;;;3.33;2.33;;;;;;;;;;4969220;28;20485;-90
2023/07/27 01:10:04;;;;;;;3.97;2.87;;;;;;;;;;4968670;28;20429;-90
2023/07/27 01:12:42;;;;;;;3.33;2.20;;;;;;;;;;4984692;28;20470;-91
2023/07/27 01:15:12;;;;;;;2.83;2.17;;;;;;;;;;4969037;28;20477;-92
2023/07/27 01:17:40;;;;;;;3.20;2.70;;;;;;;;;;4985510;28;20460;-90
2023/07/27 01:20:12;;;;;;;4.37;2.40;;;;;;;;;;4964880;28;20505;-89
2023/07/27 01:22:51;;;;;;;2.47;2.00;;;;;;;;;;4987063;28;20501;-89
2023/07/27 01:25:36;;;;;;;2.97;2.27;;;;;;;;;;4981531;28;20942;-90
2023/07/27 01:28:22;;;;;;;3.37;2.10;;;;;;;;;;4991495;28;22014;-90
2023/07/27 01:30:50;;;;;;;4.03;2.80;;;;;;;;;;4984162;28;20441;-91
2023/07/27 01:33:16;;;;;;;2.50;2.07;;;;;;;;;;4972751;28;20928;-92
2023/07/27 01:36:09;;;;;;;5.27;2.13;;;;;;;;;;4969848;28;20513;-91
2023/07/27 01:38:36;;;;;;;3.20;2.03;;;;;;;;;;4949464;28;20424;-88
2023/07/27 01:41:01;;;;;;;6.93;2.20;;;;;;;;;;4971398;28;20444;-88
2023/07/27 01:43:27;;;;;;;3.00;2.60;;;;;;;;;;4968585;28;20413;-88
2023/07/27 01:45:54;;;;;;;3.93;2.30;;;;;;;;;;4969783;28;20520;-88
2023/07/27 01:48:21;;;;;;;4.00;2.90;;;;;;;;;;4968772;28;20461;-90
2023/07/27 01:50:48;;;;;;;3.03;2.73;;;;;;;;;;4979236;28;20438;-92
2023/07/27 01:53:15;;;;;;;3.30;2.20;;;;;;;;;;4980220;28;20478;-91
2023/07/27 01:55:41;;;;;;;4.37;2.30;;;;;;;;;;4981118;28;20425;-88
2023/07/27 01:58:07;;;;;;;2.63;2.10;;;;;;;;;;4963195;28;20448;-88
2023/07/27 02:00:33;;;;;;;2.60;2.23;;;;;;;;;;4966175;28;20437;-87
2023/07/27 02:02:59;;;;;;;2.87;2.53;;;;;;;;;;4964957;28;20812;-88
2023/07/27 02:05:25;;;;;;;2.60;2.10;;;;;;;;;;4966686;28;20447;-93
2023/07/27 02:07:51;;;;;;;2.93;2.03;;;;;;;;;;4970234;28;20460;-90
2023/07/27 02:10:18;;;;;;;2.73;2.20;;;;;;;;;;4970554;28;20820;-93
2023/07/27 02:12:51;;;;;;;3.03;2.20;;;;;;;;;;4970501;28;20429;-94
2023/07/27 02:15:18;;;;;;;6.07;2.67;;;;;;;;;;4968489;28;21067;-88
2023/07/27 02:17:48;;;;;;;2.20;1.80;;;;;;;;;;4966009;28;20813;-88
2023/07/27 02:20:16;;;;;;;3.67;2.70;;;;;;;;;;4960365;28;21138;-88
2023/07/27 02:22:42;;;;;;;3.70;2.03;;;;;;;;;;4962442;28;20588;-88
2023/07/27 02:25:08;;;;;;;3.43;2.70;;;;;;;;;;4968097;28;20480;-87
2023/07/27 02:27:34;;;;;;;2.47;2.13;;;;;;;;;;4974088;28;20968;-94
2023/07/27 02:30:03;;;;;;;2.50;2.00;;;;;;;;;;4966992;28;20492;-90
2023/07/27 02:32:30;;;;;;;4.40;2.30;;;;;;;;;;4967633;28;20418;-88
2023/07/27 02:34:56;;;;;;;5.80;2.07;;;;;;;;;;4966006;28;20955;-95
2023/07/27 02:37:22;;;;;;;2.90;2.30;;;;;;;;;;4972768;28;20425;-93
2023/07/27 02:39:48;;;;;;;3.70;2.20;;;;;;;;;;4973802;28;20424;-91
2023/07/27 02:42:14;;;;;;;2.47;2.10;;;;;;;;;;4980611;28;20856;-91
2023/07/27 02:44:40;;;;;;;4.07;2.20;;;;;;;;;;4966231;28;21011;-92
2023/07/27 02:47:06;;;;;;;2.20;1.80;;;;;;;;;;4971253;28;20428;-91
2023/07/27 02:49:32;;;;;;;2.23;1.67;;;;;;;;;;4961031;28;20485;-92
2023/07/27 02:51:58;;;;;;;3.00;2.37;;;;;;;;;;4971464;28;20464;-92
2023/07/27 02:54:24;;;;;;;3.20;2.47;;;;;;;;;;4968385;28;20445;-92
2023/07/27 02:56:51;;;;;;;2.30;2.10;;;;;;;;;;4969944;28;20444;-92
2023/07/27 02:59:17;;;;;;;2.43;2.07;;;;;;;;;;4971759;28;20453;-92
2023/07/27 03:01:42;;;;;;;3.30;2.37;;;;;;;;;;4971756;28;20433;-92
2023/07/27 03:04:08;;;;;;;2.40;1.83;;;;;;;;;;4971433;28;20437;-92
2023/07/27 03:06:35;;;;;;;2.63;1.90;;;;;;;;;;4970862;28;20449;-92
2023/07/27 03:09:01;;;;;;;3.60;2.37;;;;;;;;;;4971210;28;20494;-92
2023/07/27 03:11:27;;;;;;;7.23;1.90;;;;;;;;;;4968825;28;20836;-92
2023/07/27 03:13:54;;;;;;;3.83;3.27;;;;;;;;;;4979242;28;20460;-92
2023/07/27 03:16:20;;;;;;;2.93;1.97;;;;;;;;;;4972907;28;20445;-92
2023/07/27 03:18:46;;;;;;;3.93;2.30;;;;;;;;;;4958862;28;20540;-92
2023/07/27 03:21:12;;;;;;;4.80;2.10;;;;;;;;;;4968379;28;20398;-92
2023/07/27 03:23:38;;;;;;;3.47;2.33;;;;;;;;;;4962668;28;20530;-89
2023/07/27 03:26:13;;;;;;;2.60;2.10;;;;;;;;;;4960350;28;20517;-88
2023/07/27 03:28:39;;;;;;;2.63;2.30;;;;;;;;;;4950906;28;20488;-88
2023/07/27 03:31:18;;;;;;;3.20;2.27;;;;;;;;;;4967180;28;20425;-87
2023/07/27 03:34:02;;;;;;;4.50;2.50;;;;;;;;;;5090599;27;1935306;-90
2023/07/27 03:36:28;;;;;;;7.20;2.63;;;;;;;;;;5094512;28;20201;-89
2023/07/27 03:38:54;;;;;;;3.70;2.33;;;;;;;;;;5114538;28;20933;-89
2023/07/27 03:41:20;;;;;;;2.53;1.90;;;;;;;;;;5102789;28;20513;-92
2023/07/27 03:43:46;;;;;;;4.30;1.63;;;;;;;;;;5098625;28;20478;-90
2023/07/27 03:46:12;;;;;;;2.30;1.87;;;;;;;;;;5091293;28;20414;-89
2023/07/27 03:48:38;;;;;;;3.57;2.27;;;;;;;;;;5098345;28;20451;-89
2023/07/27 03:51:04;;;;;;;3.40;2.30;;;;;;;;;;5098263;28;20414;-89
2023/07/27 03:53:30;;;;;;;2.20;1.90;;;;;;;;;;5119673;27;20490;-89
2023/07/27 03:55:56;;;;;;;2.47;2.27;;;;;;;;;;5091566;28;20428;-89
2023/07/27 03:58:23;;;;;;;2.43;2.00;;;;;;;;;;5117765;28;20481;-89
2023/07/27 04:00:49;;;;;;;4.70;2.03;;;;;;;;;;5104402;28;20681;-89
2023/07/27 04:03:15;;;;;;;2.47;1.60;;;;;;;;;;5103612;28;20527;-89
2023/07/27 04:05:41;;;;;;;4.50;2.53;;;;;;;;;;5098705;27;20491;-88
2023/07/27 04:08:07;;;;;;;3.37;2.00;;;;;;;;;;5102964;28;20430;-93
2023/07/27 04:10:33;;;;;;;4.40;2.17;;;;;;;;;;5099480;28;20427;-93
2023/07/27 04:12:59;;;;;;;3.60;2.20;;;;;;;;;;5098240;28;20414;-94
2023/07/27 04:15:25;;;;;;;3.13;2.37;;;;;;;;;;5102187;27;20431;-92
2023/07/27 04:17:51;;;;;;;2.53;2.10;;;;;;;;;;5094911;28;20427;-92
2023/07/27 04:20:17;;;;;;;4.70;2.10;;;;;;;;;;5118902;28;20484;-91
2023/07/27 04:22:43;;;;;;;3.57;2.30;;;;;;;;;;5100294;28;20455;-93
2023/07/27 04:25:09;;;;;;;6.00;2.30;;;;;;;;;;5100668;28;20467;-93
2023/07/27 04:27:35;;;;;;;2.50;1.83;;;;;;;;;;5103169;28;21260;-92
2023/07/27 04:30:01;;;;;;;3.90;2.20;;;;;;;;;;5098349;28;20403;-93
2023/07/27 04:32:27;;;;;;;2.30;1.63;;;;;;;;;;5124988;28;20454;-92
2023/07/27 04:34:53;;;;;;;3.17;2.33;;;;;;;;;;5100137;27;20812;-93
2023/07/27 04:37:20;;;;;;;3.43;2.33;;;;;;;;;;5100339;28;20430;-92
2023/07/27 04:39:46;;;;;;;3.07;2.50;;;;;;;;;;5101451;28;20412;-92
2023/07/27 04:42:12;;;;;;;2.73;2.03;;;;;;;;;;5104384;28;20466;-92
2023/07/27 04:44:39;;;;;;;4.30;2.37;;;;;;;;;;5098037;28;20443;-91
2023/07/27 04:47:05;;;;;;;2.17;1.90;;;;;;;;;;5086266;28;20459;-93
2023/07/27 04:49:31;;;;;;;10.00;2.30;;;;;;;;;;5089162;28;20911;-94
2023/07/27 04:51:57;;;;;;;2.10;1.40;;;;;;;;;;5088712;28;20435;-93
2023/07/27 04:54:23;;;;;;;2.03;1.43;;;;;;;;;;5094367;28;20431;-93
2023/07/27 04:56:49;;;;;;;2.60;2.17;;;;;;;;;;5087943;28;20428;-96
2023/07/27 04:59:15;;;;;;;2.97;2.20;;;;;;;;;;5080185;28;20433;-92
2023/07/27 05:01:41;;;;;;;4.43;1.63;;;;;;;;;;5087090;28;20432;-90
2023/07/27 05:04:07;;;;;;;2.60;2.10;;;;;;;;;;5090184;28;20467;-92
2023/07/27 05:06:34;;;;;;;3.70;1.87;;;;;;;;;;5100044;28;20440;-91
2023/07/27 05:09:00;;;;;;;5.60;2.23;;;;;;;;;;5091719;28;20427;-91
2023/07/27 05:11:26;;;;;;;3.30;2.00;;;;;;;;;;5088869;28;20489;-91
2023/07/27 05:13:52;;;;;;;2.53;1.97;;;;;;;;;;5076430;28;20442;-92
2023/07/27 05:16:18;;;;;;;3.80;2.57;;;;;;;;;;5092655;28;21237;-92
2023/07/27 05:18:46;;;;;;;2.30;1.90;;;;;;;;;;5090713;28;20447;-92
2023/07/27 05:21:12;;;;;;;8.30;2.27;;;;;;;;;;5088942;28;20425;-92
2023/07/27 05:23:38;;;;;;;5.50;2.20;;;;;;;;;;5091560;28;20475;-92
2023/07/27 05:26:05;;;;;;;2.73;2.00;;;;;;;;;;5082841;28;20431;-87
2023/07/27 05:28:31;;;;;;;2.63;1.90;;;;;;;;;;5081707;28;20428;-88
2023/07/27 05:30:57;;;;;;;2.70;1.80;;;;;;;;;;5080558;28;20483;-88
2023/07/27 05:33:24;;;;;;;3.60;2.30;;;;;;;;;;5083331;28;21032;-88
2023/07/27 05:35:50;;;;;;;3.60;1.90;;;;;;;;;;5089278;28;20660;-88
2023/07/27 05:38:17;;;;;;;3.47;2.40;;;;;;;;;;5102032;28;20810;-89
2023/07/27 05:40:43;;;;;;;5.93;3.10;;;;;;;;;;5084158;28;20427;-88
2023/07/27 05:43:09;;;;;;;4.90;2.00;;;;;;;;;;5077749;28;20551;-89
2023/07/27 05:45:36;;;;;;;5.97;2.47;;;;;;;;;;5078495;28;20424;-91
2023/07/27 05:48:02;;;;;;;3.13;1.77;;;;;;;;;;5083245;28;20443;-91
2023/07/27 05:50:28;;;;;;;3.63;2.07;;;;;;;;;;5097414;28;21000;-90
2023/07/27 05:52:54;;;;;;;4.53;2.30;;;;;;;;;;5081360;28;20444;-90
2023/07/27 05:55:20;;;;;;;5.37;1.60;;;;;;;;;;5101871;28;20475;-91
2023/07/27 05:57:46;;;;;;;2.30;1.57;;;;;;;;;;5080976;28;20983;-89
2023/07/27 06:00:12;;;;;;;2.70;1.77;;;;;;;;;;5087241;28;20437;-91
2023/07/27 06:02:38;;;;;;;2.90;2.40;;;;;;;;;;5087613;28;20524;-90
2023/07/27 06:05:05;;;;;;;3.63;2.27;;;;;;;;;;5088668;28;20427;-90
2023/07/27 06:07:31;;;;;;;2.13;1.73;;;;;;;;;;5084610;28;20424;-91
2023/07/27 06:10:00;;;;;;;2.80;1.83;;;;;;;;;;5084527;28;20461;-91
2023/07/27 06:12:26;;;;;;;3.07;2.40;;;;;;;;;;5096941;28;21150;-89
2023/07/27 06:14:52;;;;;;;3.07;2.37;;;;;;;;;;5076606;28;20435;-92
2023/07/27 06:17:18;;;;;;;3.67;2.20;;;;;;;;;;5086923;28;20512;-92
2023/07/27 06:19:44;;;;;;;4.63;2.20;;;;;;;;;;5081865;28;20408;-91
2023/07/27 06:22:10;;;;;;;2.97;1.90;;;;;;;;;;5087917;28;20468;-92
2023/07/27 06:24:36;;;;;;;3.00;2.13;;;;;;;;;;5078598;28;20757;-91
2023/07/27 06:27:02;;;;;;;3.43;2.40;;;;;;;;;;5088152;28;20482;-91
2023/07/27 06:29:28;;;;;;;3.30;1.97;;;;;;;;;;5081349;28;20411;-90
2023/07/27 06:31:54;;;;;;;3.80;2.20;;;;;;;;;;5083338;28;20412;-91
2023/07/27 06:34:20;;;;;;;2.97;2.00;;;;;;;;;;5088077;28;20456;-90
2023/07/27 06:36:46;;;;;;;3.70;2.00;;;;;;;;;;5108972;28;20415;-89
2023/07/27 06:39:12;;;;;;;3.10;1.87;;;;;;;;;;5088926;28;20432;-90
2023/07/27 06:41:38;;;;;;;2.77;2.03;;;;;;;;;;5085156;28;20473;-88
2023/07/27 06:44:04;;;;;;;2.00;1.70;;;;;;;;;;5076565;28;20468;-89
2023/07/27 06:46:31;;;;;;;3.20;1.83;;;;;;;;;;5084058;28;20435;-88
2023/07/27 06:48:58;;;;;;;2.83;1.77;;;;;;;;;;5075578;28;20442;-87
2023/07/27 06:51:24;;;;;;;3.40;2.10;;;;;;;;;;5077803;28;21084;-87
2023/07/27 06:53:50;;;;;;;2.90;2.47;;;;;;;;;;5081017;28;21033;-86
2023/07/27 06:56:19;;;;;;;2.80;1.70;;;;;;;;;;5095811;28;20427;-87
2023/07/27 06:58:45;;;;;;;3.17;2.20;;;;;;;;;;5074802;28;20417;-87
2023/07/27 07:01:11;;;;;;;2.37;1.80;;;;;;;;;;5077502;28;20472;-87
2023/07/27 07:03:37;;;;;;;3.40;1.87;;;;;;;;;;5074234;28;20463;-88
2023/07/27 07:06:03;;;;;;;5.27;2.03;;;;;;;;;;5102308;28;20434;-88
2023/07/27 07:08:29;;;;;;;3.27;2.10;;;;;;;;;;5077899;28;20458;-91
2023/07/27 07:10:55;;;;;;;2.43;2.07;;;;;;;;;;5076093;28;20417;-91
2023/07/27 07:13:23;;;;;;;2.60;2.40;;;;;;;;;;5077817;28;20833;-93
2023/07/27 07:15:52;;;;;;;3.47;2.10;;;;;;;;;;5086172;28;20448;-91
2023/07/27 07:18:18;;;;;;;4.00;1.70;;;;;;;;;;5070769;28;20436;-91
2023/07/27 07:20:45;;;;;;;2.23;1.83;;;;;;;;;;5061177;28;20444;-91
2023/07/27 07:23:11;;;;;;;3.30;2.20;;;;;;;;;;5068409;28;21034;-89
2023/07/27 07:25:40;;;;;;;3.80;2.53;;;;;;;;;;5069669;28;20448;-89
2023/07/27 07:28:08;;;;;;;2.80;2.17;;;;;;;;;;5077078;28;20419;-89
2023/07/27 07:30:34;;;;;;;2.70;2.10;;;;;;;;;;5083683;28;20658;-88
2023/07/27 07:33:00;;;;;;;2.50;1.77;;;;;;;;;;5081708;28;20436;-89
2023/07/27 07:35:26;;;;;;;2.37;1.90;;;;;;;;;;5068644;28;20534;-88
2023/07/27 07:37:52;;;;;;;3.10;2.10;;;;;;;;;;5068317;28;20415;-92
2023/07/27 07:40:20;;;;;;;1.93;1.70;;;;;;;;;;5067768;28;20415;-89
2023/07/27 07:42:46;;;;;;;2.80;2.13;;;;;;;;;;5061364;28;20465;-89
2023/07/27 07:45:12;;;;;;;2.70;2.00;;;;;;;;;;5076569;28;21211;-89
2023/07/27 07:47:38;;;;;;;2.50;1.93;;;;;;;;;;5075244;28;20412;-89
2023/07/27 07:50:05;;;;;;;3.20;2.50;;;;;;;;;;5090189;28;20429;-89
2023/07/27 07:52:31;;;;;;;3.47;2.57;;;;;;;;;;5086673;28;20415;-90
2023/07/27 07:54:57;;;;;;;4.80;2.47;;;;;;;;;;5070678;28;20804;-89
2023/07/27 07:57:23;;;;;;;5.03;2.30;;;;;;;;;;5073979;28;20529;-90
2023/07/27 07:59:49;;;;;;;2.83;1.83;;;;;;;;;;5102009;28;20423;-90
2023/07/27 08:02:15;;;;;;;2.30;1.83;;;;;;;;;;5101572;28;20858;-88
2023/07/27 08:04:41;;;;;;;6.97;2.23;;;;;;;;;;5079000;28;20790;-89
2023/07/27 08:07:07;;;;;;;2.73;2.00;;;;;;;;;;5088518;28;20419;-90
2023/07/27 08:09:33;;;;;;;4.53;1.93;;;;;;;;;;5092130;28;20803;-90
2023/07/27 08:11:59;;;;;;;2.73;2.30;;;;;;;;;;5091969;28;20511;-91
2023/07/27 08:14:25;;;;;;;3.97;2.47;;;;;;;;;;5092021;28;20451;-92
2023/07/27 08:16:51;;;;;;;2.47;2.00;;;;;;;;;;5092872;28;20499;-92
2023/07/27 08:19:17;;;;;;;7.53;2.23;;;;;;;;;;5105085;28;20439;-91
2023/07/27 08:21:43;;;;;;;3.30;1.93;;;;;;;;;;5095587;28;20526;-92
2023/07/27 08:24:09;;;;;;;3.13;1.93;;;;;;;;;;5097765;28;20471;-91
2023/07/27 08:26:35;;;;;;;5.10;2.70;;;;;;;;;;5113784;28;20886;-91
2023/07/27 08:29:01;;;;;;;2.30;1.77;;;;;;;;;;5097677;28;20439;-91
2023/07/27 08:31:27;;;;;;;3.53;1.93;;;;;;;;;;5090744;28;20494;-88
2023/07/27 08:33:54;;;;;;;7.03;2.10;;;;;;;;;;5088743;28;20446;-89
2023/07/27 08:36:20;;;;;;;2.83;2.13;;;;;;;;;;5089173;28;20400;-89
2023/07/27 08:38:46;;;;;;;2.97;2.17;;;;;;;;;;5071833;28;20435;-89
2023/07/27 08:41:12;;;;;;;4.13;2.50;;;;;;;;;;5100426;28;20443;-90
2023/07/27 08:43:38;;;;;;;3.20;2.17;;;;;;;;;;5091703;28;20894;-90
2023/07/27 08:46:04;;;;;;;5.60;2.40;;;;;;;;;;5093913;28;20431;-90
2023/07/27 08:48:30;;;;;;;4.60;2.10;;;;;;;;;;5091856;28;20514;-91
2023/07/27 08:50:57;;;;;;;4.17;2.30;;;;;;;;;;5093803;28;20427;-91
2023/07/27 08:53:23;;;;;;;3.23;2.17;;;;;;;;;;5102488;28;20427;-87
2023/07/27 08:55:49;;;;;;;2.77;2.10;;;;;;;;;;5078342;28;21010;-90
2023/07/27 08:58:15;;;;;;;4.47;2.50;;;;;;;;;;5090667;28;20457;-92
2023/07/27 09:00:41;;;;;;;3.57;1.67;;;;;;;;;;5089978;28;20424;-90
2023/07/27 09:03:07;;;;;;;2.53;2.33;;;;;;;;;;5090054;28;20466;-91
2023/07/27 09:05:37;;;;;;;2.90;2.33;;;;;;;;;;5093000;28;20408;-91
2023/07/27 09:08:07;;;;;;;3.50;2.30;;;;;;;;;;5110721;28;20416;-90
2023/07/27 09:10:33;;;;;;;3.00;2.47;;;;;;;;;;5092435;28;20464;-91
2023/07/27 09:13:00;;;;;;;3.17;2.40;;;;;;;;;;5078637;28;20444;-91
2023/07/27 09:15:26;;;;;;;3.93;2.80;;;;;;;;;;5094478;28;20416;-92
2023/07/27 09:17:52;;;;;;;3.97;2.20;;;;;;;;;;5092591;28;20411;-91
2023/07/27 09:20:18;;;;;;;3.33;2.10;;;;;;;;;;5091974;28;20447;-91
2023/07/27 09:22:45;;;;;;;3.30;1.83;;;;;;;;;;5106184;28;20455;-89
2023/07/27 09:25:11;;;;;;;5.17;2.43;;;;;;;;;;5087364;28;20428;-90
2023/07/27 09:27:44;;;;;;;5.00;2.37;;;;;;;;;;5086485;28;20436;-92
2023/07/27 09:30:11;;;;;;;5.30;1.90;;;;;;;;;;5068151;28;20450;-91
2023/07/27 09:32:37;;;;;;;4.20;2.17;;;;;;;;;;5068744;28;20515;-90
2023/07/27 09:35:03;;;;;;;4.40;2.47;;;;;;;;;;5099123;28;20796;-88
2023/07/27 09:37:29;;;;;;;4.40;2.40;;;;;;;;;;5089389;28;20420;-87
2023/07/27 09:40:08;;;;;;;4.83;3.20;;;;;;;;;;5084237;28;20512;-87
2023/07/27 09:42:34;;;;;;;3.67;2.27;;;;;;;;;;5082156;28;20455;-87
2023/07/27 09:45:00;;;;;;;4.33;2.23;;;;;;;;;;5079079;28;20684;-87
2023/07/27 09:47:31;;;;;;;2.90;2.43;;;;;;;;;;5080724;28;20470;-86
2023/07/27 09:50:00;;;;;;;3.70;2.27;;;;;;;;;;5081311;28;20453;-87
2023/07/27 09:52:27;;;;;;;5.17;2.20;;;;;;;;;;5084105;28;20539;-89
2023/07/27 09:54:52;;;;;;;3.43;2.57;;;;;;;;;;5093397;28;20517;-91
2023/07/27 09:57:19;;;;;;;4.97;2.13;;;;;;;;;;5113836;28;20412;-90
2023/07/27 09:59:45;;;;;;;3.50;2.07;;;;;;;;;;5094670;28;20625;-90
2023/07/27 10:02:12;;;;;;;3.80;2.50;;;;;;;;;;5090964;28;20459;-89
2023/07/27 10:04:38;;;;;;;2.67;2.13;;;;;;;;;;5094885;28;20491;-89
2023/07/27 10:07:08;;;;;;;3.40;2.00;;;;;;;;;;5093292;28;20499;-89
2023/07/27 10:09:49;;;;;;;6.30;2.60;;;;;;;;;;5107439;28;20438;-90
2023/07/27 10:12:36;;;;;;;3.20;2.40;;;;;;;;;;5097651;28;20395;-91
2023/07/27 10:15:21;;;;;;;3.87;2.23;;;;;;;;;;5114330;28;20412;-90
2023/07/27 11:31:29;;;;;;;3.53;2.13;;;;;;;;;;5044060;28;20435;-91
2023/07/27 11:34:03;;;;;;;2.93;1.83;;;;;;;;;;5029084;28;20469;-90
2023/07/27 11:36:29;;;;;;;3.23;2.03;;;;;;;;;;5018242;28;20601;-90
2023/07/27 11:38:56;;;;;;;5.30;1.83;;;;;;;;;;5024724;28;20426;-91
2023/07/27 11:41:22;;;;;;;3.23;2.10;;;;;;;;;;5014410;28;20433;-90
2023/07/27 11:43:52;;;;;;;3.40;2.00;;;;;;;;;;5028842;28;20478;-89
2023/07/27 11:46:18;;;;;;;2.60;1.97;;;;;;;;;;5025194;28;20415;-90
2023/07/27 11:48:44;;;;;;;4.03;1.97;;;;;;;;;;5022885;28;20451;-89
2023/07/27 11:51:10;;;;;;;3.43;2.43;;;;;;;;;;5019994;28;20439;-90
2023/07/27 11:53:37;;;;;;;2.50;1.73;;;;;;;;;;5021011;28;20449;-89
2023/07/27 11:56:08;;;;;;;3.70;2.30;;;;;;;;;;5042700;28;20418;-88
2023/07/27 11:58:34;;;;;;;3.73;2.33;;;;;;;;;;5024250;28;20438;-89
2023/07/27 12:01:00;;;;;;;2.57;1.93;;;;;;;;;;5028607;28;20491;-90
2023/07/27 12:03:29;;;;;;;3.47;2.30;;;;;;;;;;5034579;28;20450;-90
2023/07/27 12:05:55;;;;;;;2.90;2.37;;;;;;;;;;5026874;28;21160;-89
2023/07/27 12:08:25;;;;;;;6.27;2.20;;;;;;;;;;5040121;28;20427;-92
2023/07/27 12:10:54;;;;;;;4.20;2.70;;;;;;;;;;5049221;28;20432;-92
2023/07/27 12:13:21;;;;;;;5.47;2.47;;;;;;;;;;5027695;28;20413;-91
2023/07/27 12:15:47;;;;;;;3.33;2.53;;;;;;;;;;5034017;28;20422;-90
2023/07/27 12:18:14;;;;;;;3.07;2.60;;;;;;;;;;5025476;28;20423;-93
2023/07/27 12:20:40;;;;;;;4.20;3.80;;;;;;;;;;5048585;28;20475;-91
2023/07/27 12:23:06;;;;;;;2.87;2.50;;;;;;;;;;5027074;28;20455;-91
2023/07/27 12:25:32;;;;;;;3.10;2.40;;;;;;;;;;5043391;28;20437;-92
2023/07/27 12:27:58;;;;;;;4.03;2.33;;;;;;;;;;5044266;28;20443;-91
2023/07/27 12:30:24;;;;;;;2.60;2.03;;;;;;;;;;5041221;28;20441;-92
2023/07/27 12:32:51;;;;;;;2.77;2.00;;;;;;;;;;5026757;28;20468;-90
2023/07/27 12:35:18;;;;;;;3.73;2.50;;;;;;;;;;5038522;28;20499;-91
2023/07/27 12:37:45;;;;;;;2.73;2.30;;;;;;;;;;5049716;28;20473;-90
2023/07/27 12:40:12;;;;;;;3.40;2.20;;;;;;;;;;5047013;28;20826;-91
2023/07/27 12:42:39;;;;;;;4.20;2.70;;;;;;;;;;5031684;28;20450;-93
2023/07/27 12:45:06;;;;;;;3.17;2.27;;;;;;;;;;5029805;28;20450;-91
2023/07/27 12:47:32;;;;;;;2.83;2.33;;;;;;;;;;5031403;28;20414;-92
2023/07/27 12:49:59;;;;;;;5.43;2.87;;;;;;;;;;5033671;28;20937;-92
2023/07/27 12:52:25;;;;;;;3.50;2.23;;;;;;;;;;5035160;28;20435;-91
2023/07/27 12:54:51;;;;;;;2.73;1.87;;;;;;;;;;5039822;28;20457;-91
2023/07/27 12:57:17;;;;;;;4.53;2.10;;;;;;;;;;5031295;28;20414;-91
2023/07/27 13:02:19;;;;;;;3.60;2.80;;;;;;;;;;5118135;22;20480;-91
2023/07/27 13:04:45;;;;;;;3.60;2.23;;;;;;;;;;5049039;28;20430;-92
2023/07/27 13:07:13;;;;;;;3.10;2.30;;;;;;;;;;5051823;28;20415;-91
2023/07/27 13:09:41;;;;;;;2.93;2.10;;;;;;;;;;5053518;28;20470;-91
2023/07/27 13:12:07;;;;;;;3.87;2.50;;;;;;;;;;5064088;28;20440;-89
2023/07/27 13:14:34;;;;;;;3.27;2.37;;;;;;;;;;5039269;28;20426;-91
2023/07/27 13:17:00;;;;;;;5.30;3.10;;;;;;;;;;5033882;28;20529;-90
2023/07/27 13:19:26;;;;;;;5.00;4.30;;;;;;;;;;5041789;28;20438;-91
2023/07/27 13:21:59;;;;;;;3.90;2.90;;;;;;;;;;5052556;28;20428;-89
2023/07/27 13:24:26;;;;;;;3.93;3.27;;;;;;;;;;5047680;28;20419;-89
2023/07/27 13:26:52;;;;;;;6.17;3.00;;;;;;;;;;5049295;28;20514;-90
2023/07/27 13:29:18;;;;;;;3.50;2.20;;;;;;;;;;5055313;28;20407;-90
2023/07/27 13:31:47;;;;;;;2.67;2.37;;;;;;;;;;5050950;28;20406;-91
2023/07/27 13:34:13;;;;;;;4.77;2.80;;;;;;;;;;5042406;28;20422;-91
2023/07/27 13:36:41;;;;;;;2.70;2.10;;;;;;;;;;5044355;28;20470;-91
2023/07/27 13:39:07;;;;;;;3.40;2.90;;;;;;;;;;5034355;28;20445;-91
2023/07/27 13:41:33;;;;;;;2.57;2.30;;;;;;;;;;5041208;28;20421;-91
2023/07/27 13:44:16;;;;;;;3.00;2.50;;;;;;;;;;5040802;28;20457;-91
2023/07/27 13:46:42;;;;;;;4.70;2.70;;;;;;;;;;5053915;28;20450;-89
2023/07/27 13:49:08;;;;;;;3.73;2.33;;;;;;;;;;5038114;28;20449;-91
2023/07/27 13:51:34;;;;;;;6.40;3.30;;;;;;;;;;5043169;28;20924;-90
2023/07/27 13:54:01;;;;;;;3.60;2.93;;;;;;;;;;5051724;28;20418;-92
2023/07/27 13:56:28;;;;;;;6.07;3.10;;;;;;;;;;5036589;28;20437;-90
2023/07/27 13:58:54;;;;;;;3.53;3.10;;;;;;;;;;5048262;28;20442;-92
2023/07/27 14:01:20;;;;;;;4.37;2.97;;;;;;;;;;5039597;28;20397;-92
2023/07/27 14:03:52;;;;;;;3.30;3.00;;;;;;;;;;5044761;28;20469;-92
2023/07/27 14:06:18;;;;;;;5.63;2.63;;;;;;;;;;5060242;28;20491;-92
2023/07/27 14:08:45;;;;;;;2.77;2.50;;;;;;;;;;5059385;28;20410;-92
2023/07/27 14:11:13;;;;;;;3.80;2.50;;;;;;;;;;5020117;28;20425;-94
2023/07/27 14:13:40;;;;;;;4.97;3.13;;;;;;;;;;5009661;28;20432;-93
2023/07/27 14:16:06;;;;;;;5.57;4.00;;;;;;;;;;5003140;28;20927;-93
2023/07/27 14:18:42;;;;;;;7.87;3.50;;;;;;;;;;5001586;28;20462;-91
2023/07/27 14:21:08;;;;;;;3.70;2.30;;;;;;;;;;4973678;28;20440;-94
2023/07/27 14:23:34;;;;;;;5.47;2.90;;;;;;;;;;4990580;28;20893;-93
2023/07/27 14:26:00;;;;;;;5.13;4.73;;;;;;;;;;5004029;28;20425;-92
2023/07/27 14:28:26;;;;;;;3.47;2.60;;;;;;;;;;4997491;28;20516;-92
2023/07/27 14:30:53;;;;;;;3.67;3.30;;;;;;;;;;5008630;28;20455;-93
2023/07/27 14:33:19;;;;;;;3.80;3.50;;;;;;;;;;4996459;28;20421;-94
2023/07/27 14:35:45;;;;;;;3.90;2.77;;;;;;;;;;4989157;28;20426;-92
2023/07/27 14:38:11;;;;;;;3.57;2.93;;;;;;;;;;5003040;28;20497;-92
2023/07/27 14:40:39;;;;;;;3.27;2.63;;;;;;;;;;4991073;28;20424;-94
2023/07/27 14:43:07;;;;;;;3.40;2.90;;;;;;;;;;5006898;28;21001;-93
2023/07/27 14:45:34;;;;;;;4.37;3.30;;;;;;;;;;5009953;28;20838;-93
2023/07/27 14:48:02;;;;;;;3.50;2.83;;;;;;;;;;5009103;28;21006;-92
2023/07/27 14:50:28;;;;;;;4.27;2.43;;;;;;;;;;4993404;28;20424;-93
2023/07/27 14:53:49;;;;;;;3.83;3.00;;;;;;;;;;5013046;28;20432;-92
2023/07/27 14:56:15;;;;;;;3.13;2.70;;;;;;;;;;5011238;28;20400;-93
2023/07/27 14:58:42;;;;;;;3.37;2.77;;;;;;;;;;5013203;28;20400;-92
2023/07/27 15:01:08;;;;;;;3.00;2.50;;;;;;;;;;5006570;28;20465;-92
2023/07/27 15:03:36;;;;;;;3.87;2.60;;;;;;;;;;5033533;28;20459;-90
2023/07/27 15:06:03;;;;;;;3.43;2.40;;;;;;;;;;5043989;28;20506;-93
2023/07/27 15:08:40;;;;;;;2.93;2.60;;;;;;;;;;5035971;28;20443;-93
2023/07/27 15:11:13;;;;;;;4.37;3.13;;;;;;;;;;5013444;28;20407;-92
2023/07/27 15:13:43;;;;;;;6.03;3.10;;;;;;;;;;5052217;28;20454;-94
2023/07/27 15:16:09;;;;;;;9.83;4.43;;;;;;;;;;5029833;28;20436;-95
2023/07/27 15:18:42;;;;;;;9.33;3.00;;;;;;;;;;5016155;28;20424;-94
2023/07/27 15:21:08;;;;;;;4.77;2.90;;;;;;;;;;5032355;28;20420;-92
2023/07/27 15:23:35;;;;;;;4.30;3.13;;;;;;;;;;5029472;28;20472;-92
